Iver Agile — IBHW — position and weather

sailwx.info

Track history (hours):
 
Tides and Currents Weather Stations Pressure Air Temp Water Temp Dewpoint Dewpoint Depression Visibility Wind Speed Wind Dir Waves Ship Positions

Iver Agile

Last reported at 2014-Oct-17 14:23 UTC. Time now 2014-Oct-20 22:55 UTC.
Position N 36°25' E 022°51'.

Length 110 m; draft 4.8 m.

Type: Tanker. MMSI: 247103700.

Date/timePositionNaut miles runAvg speedWind from/ knotsBaromVisibWave heightAir tempDewpointWater temp
2014-Oct-17 14:23N 36°25' E 022°51'1512.6
2014-Oct-17 13:13N 36°23' E 023°09'912.8
2014-Oct-17 12:29N 36°29' E 023°18'1314.4
2014-Oct-17 11:33N 36°41' E 023°27'2914.5
2014-Oct-17 09:33N 37°06' E 023°45'1514.4
2014-Oct-17 08:32N 37°19' E 023°55'1514.1
2014-Oct-17 07:29N 37°32' E 024°03'1613.8
2014-Oct-17 06:18N 37°45' E 024°15'1014.0
2014-Oct-17 05:33N 37°50' E 024°26'10414.8
2014-Oct-16 22:31N 39°21' E 025°31'2914.8
2014-Oct-16 20:32N 39°47' E 025°48'1713.6
2014-Oct-16 19:16N 40°01' E 026°02'  
2014-Oct-12 21:10N 39°58' E 025°59'711.6
2014-Oct-12 20:32N 39°53' E 025°52'1412.4
2014-Oct-12 19:24N 39°42' E 025°41'197 4.5
2014-Oct-10 23:31N 36°50' E 023°36'  
Track history (hours):
 
Tides and Currents Weather Stations Pressure Air Temp Water Temp Dewpoint Dewpoint Depression Visibility Wind Speed Wind Dir Waves Ship Positions

Iver Agile

Last reported at 2014-Oct-17 14:23 UTC. Time now 2014-Oct-20 22:55 UTC.
Position N 36°25' E 022°51'.

Length 110 m; draft 4.8 m.

Type: Tanker. MMSI: 247103700.

Date/timePositionNaut miles runAvg speedWind from/ knotsBaromVisibWave heightAir tempDewpointWater temp
2014-Oct-17 14:23N 36°25' E 022°51'1512.6
2014-Oct-17 13:13N 36°23' E 023°09'912.8
2014-Oct-17 12:29N 36°29' E 023°18'1314.4
2014-Oct-17 11:33N 36°41' E 023°27'2914.5
2014-Oct-17 09:33N 37°06' E 023°45'1514.4
2014-Oct-17 08:32N 37°19' E 023°55'1514.1
2014-Oct-17 07:29N 37°32' E 024°03'1613.8
2014-Oct-17 06:18N 37°45' E 024°15'1014.0
2014-Oct-17 05:33N 37°50' E 024°26'10414.8
2014-Oct-16 22:31N 39°21' E 025°31'2914.8
2014-Oct-16 20:32N 39°47' E 025°48'1713.6
2014-Oct-16 19:16N 40°01' E 026°02'  
2014-Oct-12 21:10N 39°58' E 025°59'711.6
2014-Oct-12 20:32N 39°53' E 025°52'1412.4
2014-Oct-12 19:24N 39°42' E 025°41'197 4.5
2014-Oct-10 23:31N 36°50' E 023°36'  

Dump ship's entire track history